CHH316 ZGGG-ZSSS
Flight info
| Callsign | CHH316 |
|---|---|
| Flight time | N/A |
| Altitude | 39100 |
| Route | LMN9 LMN G471 XEBUL DCT ODOPI DCT AKAVO DCT UPNUG W76 AREPI B221 SHZ G204 JTN |
| Aircraft | A346/H-SDE2E3FGHIJ3J4J5M1RWXY/LB1D1 |
Departure
| Time | 2026-05-01 15:11 |
|---|---|
| Airport | Guangzhou Baiyun International Airport (ZGGG) |
Arrival
| Time | N/A |
|---|---|
| Airport | Shanghai Hongqiao International Airport (ZSSS) |
| Time | Latitude | Longitude | Altitude | Speed | Heading |
|---|---|---|---|---|---|
| 2026-05-01 14:46 | 23.40187 | 113.30165 | 67 ft | 0 kts | 194° |
| 2026-05-01 14:59 | 23.40191 | 113.30166 | 57 ft | 3 kts | 194° |
| 2026-05-01 14:59 | 23.40217 | 113.30174 | 57 ft | 4 kts | 197° |
| 2026-05-01 14:59 | 23.40231 | 113.30178 | 57 ft | 3 kts | 161° |
| 2026-05-01 15:00 | 23.40263 | 113.30150 | 57 ft | 4 kts | 110° |
| 2026-05-01 15:00 | 23.40270 | 113.30122 | 60 ft | 3 kts | 103° |
| 2026-05-01 15:00 | 23.40271 | 113.30117 | 59 ft | 0 kts | 104° |
| 2026-05-01 15:04 | 23.40270 | 113.30121 | 60 ft | 2 kts | 104° |
| 2026-05-01 15:05 | 23.40264 | 113.30148 | 59 ft | 6 kts | 104° |
| 2026-05-01 15:05 | 23.40250 | 113.30208 | 64 ft | 10 kts | 104° |
| 2026-05-01 15:05 | 23.40235 | 113.30296 | 67 ft | 13 kts | 89° |
| 2026-05-01 15:05 | 23.40282 | 113.30393 | 59 ft | 17 kts | 47° |
| 2026-05-01 15:06 | 23.40349 | 113.30505 | 63 ft | 18 kts | 85° |
| 2026-05-01 15:06 | 23.40328 | 113.30651 | 59 ft | 21 kts | 103° |
| 2026-05-01 15:06 | 23.40299 | 113.30779 | 62 ft | 14 kts | 104° |
| 2026-05-01 15:06 | 23.40307 | 113.30856 | 59 ft | 7 kts | 45° |
| 2026-05-01 15:07 | 23.40349 | 113.30894 | 59 ft | 8 kts | 61° |
| 2026-05-01 15:07 | 23.40343 | 113.30963 | 63 ft | 11 kts | 109° |
| 2026-05-01 15:07 | 23.40328 | 113.31051 | 65 ft | 12 kts | 72° |
| 2026-05-01 15:07 | 23.40409 | 113.31100 | 59 ft | 15 kts | 14° |
| 2026-05-01 15:08 | 23.40524 | 113.31131 | 59 ft | 18 kts | 14° |
| 2026-05-01 15:08 | 23.40661 | 113.31168 | 61 ft | 20 kts | 14° |
| 2026-05-01 15:08 | 23.40770 | 113.31198 | 60 ft | 17 kts | 14° |
| 2026-05-01 15:08 | 23.40871 | 113.31225 | 60 ft | 7 kts | 14° |
| 2026-05-01 15:09 | 23.40904 | 113.31256 | 59 ft | 7 kts | 72° |
| 2026-05-01 15:09 | 23.40905 | 113.31320 | 60 ft | 10 kts | 95° |
| 2026-05-01 15:09 | 23.40890 | 113.31401 | 61 ft | 6 kts | 110° |
| 2026-05-01 15:09 | 23.40853 | 113.31420 | 60 ft | 8 kts | 194° |
| 2026-05-01 15:10 | 23.40827 | 113.31413 | 59 ft | 0 kts | 193° |
| 2026-05-01 15:10 | 23.40669 | 113.31371 | 58 ft | 57 kts | 194° |
| 2026-05-01 15:10 | 23.40061 | 113.31207 | 61 ft | 121 kts | 194° |
| 2026-05-01 15:11 | 23.39063 | 113.30939 | 67 ft | 173 kts | 193° |
| 2026-05-01 15:11 | 23.36515 | 113.30250 | 1239 ft | 187 kts | 194° |
| 2026-05-01 15:11 | 23.35288 | 113.29863 | 2140 ft | 180 kts | 193° |
| 2026-05-01 15:12 | 23.34075 | 113.29514 | 2782 ft | 185 kts | 192° |
| 2026-05-01 15:12 | 23.31222 | 113.28784 | 2949 ft | 227 kts | 191° |
| 2026-05-01 15:12 | 23.29680 | 113.28511 | 2967 ft | 228 kts | 185° |
| 2026-05-01 15:13 | 23.24815 | 113.28413 | 4625 ft | 235 kts | 181° |
| 2026-05-01 15:14 | 23.21322 | 113.28389 | 5895 ft | 264 kts | 182° |
| 2026-05-01 15:14 | 23.19491 | 113.28322 | 6649 ft | 269 kts | 187° |
| 2026-05-01 15:14 | 23.15757 | 113.27627 | 8290 ft | 275 kts | 196° |
| 2026-05-01 15:15 | 23.11924 | 113.28072 | 9910 ft | 298 kts | 154° |
| 2026-05-01 15:15 | 23.09397 | 113.31825 | 10932 ft | 338 kts | 105° |
| 2026-05-01 15:16 | 23.09130 | 113.37156 | 11614 ft | 376 kts | 76° |
| 2026-05-01 15:16 | 23.11738 | 113.42336 | 12276 ft | 409 kts | 54° |
| 2026-05-01 15:17 | 23.14974 | 113.47579 | 13538 ft | 422 kts | 55° |
| 2026-05-01 15:18 | 23.19804 | 113.55752 | 15473 ft | 434 kts | 56° |
| 2026-05-01 15:18 | 23.21437 | 113.58533 | 16100 ft | 438 kts | 56° |
| 2026-05-01 15:19 | 23.26439 | 113.67062 | 17940 ft | 451 kts | 56° |
| 2026-05-01 15:19 | 23.29847 | 113.72881 | 19020 ft | 458 kts | 56° |
| 2026-05-01 15:19 | 23.31540 | 113.75776 | 19544 ft | 461 kts | 56° |
| 2026-05-01 15:20 | 23.35012 | 113.81718 | 20637 ft | 466 kts | 56° |
| 2026-05-01 15:20 | 23.36765 | 113.84717 | 21158 ft | 469 kts | 56° |
| 2026-05-01 15:20 | 23.38526 | 113.87728 | 21668 ft | 471 kts | 56° |
| 2026-05-01 15:21 | 23.40291 | 113.90748 | 22187 ft | 474 kts | 56° |
| 2026-05-01 15:21 | 23.42069 | 113.93793 | 22662 ft | 477 kts | 56° |
| 2026-05-01 15:21 | 23.43853 | 113.96853 | 23144 ft | 480 kts | 56° |
| 2026-05-01 15:21 | 23.45648 | 113.99935 | 23609 ft | 482 kts | 57° |
| 2026-05-01 15:22 | 23.49268 | 114.06165 | 24343 ft | 488 kts | 57° |
| 2026-05-01 15:22 | 23.51090 | 114.09306 | 24726 ft | 491 kts | 56° |
| 2026-05-01 15:22 | 23.52921 | 114.12459 | 25120 ft | 493 kts | 57° |
| 2026-05-01 15:23 | 23.54143 | 114.14557 | 25357 ft | 495 kts | 56° |
| 2026-05-01 15:23 | 23.56015 | 114.17725 | 25728 ft | 498 kts | 56° |
| 2026-05-01 15:23 | 23.57908 | 114.20911 | 26124 ft | 501 kts | 56° |
| 2026-05-01 15:23 | 23.59805 | 114.24108 | 26478 ft | 504 kts | 56° |
| 2026-05-01 15:24 | 23.61713 | 114.27330 | 26833 ft | 507 kts | 56° |
| 2026-05-01 15:24 | 23.63779 | 114.30470 | 27188 ft | 509 kts | 50° |
| 2026-05-01 15:24 | 23.66149 | 114.33351 | 27516 ft | 511 kts | 43° |
| 2026-05-01 15:24 | 23.68806 | 114.35933 | 27855 ft | 512 kts | 37° |
| 2026-05-01 15:25 | 23.71640 | 114.38312 | 28213 ft | 514 kts | 34° |
| 2026-05-01 15:25 | 23.74509 | 114.40645 | 28658 ft | 514 kts | 34° |
| 2026-05-01 15:25 | 23.77379 | 114.42966 | 29256 ft | 512 kts | 34° |
| 2026-05-01 15:25 | 23.80229 | 114.45279 | 29818 ft | 510 kts | 34° |
| 2026-05-01 15:26 | 23.83069 | 114.47595 | 30300 ft | 509 kts | 34° |
| 2026-05-01 15:26 | 23.85907 | 114.49918 | 30741 ft | 508 kts | 34° |
| 2026-05-01 15:26 | 23.88730 | 114.52235 | 31213 ft | 507 kts | 34° |
| 2026-05-01 15:26 | 23.91547 | 114.54554 | 31652 ft | 507 kts | 34° |
| 2026-05-01 15:27 | 23.94359 | 114.56869 | 32087 ft | 506 kts | 34° |
| 2026-05-01 15:27 | 23.97172 | 114.59186 | 32554 ft | 505 kts | 34° |
| 2026-05-01 15:27 | 23.99976 | 114.61499 | 33038 ft | 504 kts | 34° |
| 2026-05-01 15:28 | 24.05571 | 114.66117 | 34025 ft | 501 kts | 34° |
| 2026-05-01 15:28 | 24.08356 | 114.68419 | 34447 ft | 500 kts | 34° |
| 2026-05-01 15:28 | 24.11096 | 114.70687 | 34860 ft | 499 kts | 34° |
| 2026-05-01 15:29 | 24.16667 | 114.75299 | 35685 ft | 498 kts | 33° |
| 2026-05-01 15:29 | 24.19436 | 114.77592 | 36053 ft | 498 kts | 33° |
| 2026-05-01 15:29 | 24.24854 | 114.82244 | 36831 ft | 498 kts | 37° |
| 2026-05-01 15:30 | 24.29871 | 114.87521 | 37557 ft | 501 kts | 44° |
| 2026-05-01 15:31 | 24.38648 | 114.99588 | 38574 ft | 509 kts | 49° |
| 2026-05-01 15:31 | 24.42971 | 115.05799 | 38920 ft | 512 kts | 49° |
| 2026-05-01 15:32 | 24.47311 | 115.12011 | 39076 ft | 512 kts | 49° |
| 2026-05-01 15:32 | 24.51652 | 115.18225 | 39093 ft | 512 kts | 49° |
| 2026-05-01 15:34 | 24.64662 | 115.36898 | 39090 ft | 512 kts | 49° |